createdAt,value
2019-03-26T00:01:09.272Z,84.72
2019-03-26T00:03:42.985Z,84.38
2019-03-26T00:06:16.947Z,83.62
2019-03-26T00:08:50.865Z,84.26
2019-03-26T00:11:24.658Z,84.73
2019-03-26T00:13:57.948Z,84.30
2019-03-26T00:16:31.888Z,85.14
2019-03-26T00:19:03.827Z,85.39
2019-03-26T00:21:35.917Z,85.71
2019-03-26T00:24:07.773Z,86.04
2019-03-26T00:26:39.660Z,86.07
2019-03-26T00:29:13.648Z,86.44
2019-03-26T00:31:46.666Z,87.78
2019-03-26T00:34:19.782Z,87.87
2019-03-26T00:36:54.789Z,88.41
2019-03-26T00:39:27.903Z,89.49
2019-03-26T00:42:00.862Z,90.37
2019-03-26T00:44:33.976Z,91.66
2019-03-26T00:47:06.897Z,91.32
2019-03-26T00:49:39.838Z,92.10
2019-03-26T00:52:13.014Z,92.81
2019-03-26T00:54:46.915Z,94.14
2019-03-26T00:57:18.841Z,94.38
2019-03-26T00:59:53.384Z,94.01
2019-03-26T01:02:26.831Z,93.39
2019-03-26T01:05:00.036Z,93.89
2019-03-26T01:07:34.013Z,94.71
2019-03-26T01:10:06.827Z,96.05
2019-03-26T01:12:41.112Z,96.20
2019-03-26T01:15:14.281Z,96.58
2019-03-26T01:17:46.515Z,96.97
2019-03-26T01:20:18.469Z,97.59
2019-03-26T01:22:51.105Z,98.04
2019-03-26T01:25:22.958Z,97.64
2019-03-26T01:27:55.076Z,97.27
2019-03-26T01:30:28.034Z,97.06
2019-03-26T01:33:02.621Z,95.22
2019-03-26T01:35:37.078Z,94.99
2019-03-26T01:38:11.063Z,95.17
2019-03-26T01:40:43.630Z,95.46
2019-03-26T01:43:18.093Z,95.83
2019-03-26T01:45:52.077Z,95.97
2019-03-26T01:48:25.215Z,95.92
2019-03-26T01:50:57.126Z,96.22
2019-03-26T01:53:29.077Z,96.68
2019-03-26T01:56:01.250Z,96.22
2019-03-26T01:58:34.207Z,96.05
2019-03-26T02:01:08.080Z,95.92
2019-03-26T02:03:40.211Z,96.13
2019-03-26T02:06:13.312Z,96.26
2019-03-26T02:08:45.196Z,95.89
2019-03-26T02:11:18.693Z,95.42
2019-03-26T02:13:52.312Z,95.37
2019-03-26T02:16:25.367Z,95.41
2019-03-26T02:18:58.945Z,95.17
2019-03-26T02:21:31.309Z,95.66
2019-03-26T02:24:05.035Z,95.68
2019-03-26T02:26:37.453Z,95.46
2019-03-26T02:29:10.394Z,96.10
2019-03-26T02:31:43.488Z,95.71
2019-03-26T02:34:16.433Z,96.18
2019-03-26T02:36:49.448Z,95.61
2019-03-26T02:39:22.892Z,95.76
2019-03-26T02:41:56.805Z,95.85
2019-03-26T02:44:31.416Z,96.10
2019-03-26T02:47:04.506Z,96.26
2019-03-26T02:49:37.755Z,96.48
2019-03-26T02:52:10.456Z,96.07
2019-03-26T02:54:43.986Z,96.07
2019-03-26T02:57:18.450Z,96.02
2019-03-26T02:59:50.679Z,95.64
2019-03-26T03:02:22.810Z,95.48
2019-03-26T03:04:55.632Z,95.59
2019-03-26T03:07:28.589Z,96.01
2019-03-26T03:10:01.810Z,95.86
2019-03-26T03:12:36.193Z,96.01
2019-03-26T03:15:11.216Z,95.77
2019-03-26T03:17:45.560Z,95.68
2019-03-26T03:20:18.776Z,96.33
2019-03-26T03:22:52.655Z,96.11
2019-03-26T03:25:26.697Z,95.71
2019-03-26T03:27:58.629Z,96.23
2019-03-26T03:30:31.755Z,96.13
2019-03-26T03:33:04.703Z,96.16
2019-03-26T03:35:51.248Z,96.64
2019-03-26T03:38:10.569Z,96.20
2019-03-26T03:40:43.793Z,96.13
2019-03-26T03:43:16.024Z,95.90
2019-03-26T03:45:48.914Z,96.13
2019-03-26T03:48:24.058Z,96.86
2019-03-26T03:50:58.840Z,97.14
2019-03-26T03:53:32.805Z,97.52
2019-03-26T03:56:05.515Z,97.39
2019-03-26T03:58:41.010Z,97.50
2019-03-26T04:01:14.904Z,97.89
2019-03-26T04:03:48.421Z,98.64
2019-03-26T04:06:21.968Z,98.96
2019-03-26T04:08:55.977Z,99.04
2019-03-26T04:11:29.994Z,99.11
2019-03-26T04:14:01.877Z,99.29
2019-03-26T04:16:33.947Z,99.29
2019-03-26T04:19:07.053Z,99.33
2019-03-26T04:21:40.905Z,99.43
2019-03-26T04:24:13.994Z,99.59
2019-03-26T04:26:47.977Z,99.76
2019-03-26T04:29:21.894Z,99.82
2019-03-26T04:31:56.129Z,100.00
2019-03-26T04:34:32.509Z,100.00
2019-03-26T04:37:06.040Z,100.00
2019-03-26T04:39:40.030Z,100.00
2019-03-26T04:42:14.235Z,100.00
2019-03-26T04:44:47.083Z,100.00
2019-03-26T04:47:19.096Z,99.70
2019-03-26T04:49:52.038Z,99.32
2019-03-26T04:52:24.990Z,99.26
2019-03-26T04:54:58.949Z,99.15
2019-03-26T04:57:31.135Z,99.46
2019-03-26T05:00:04.636Z,99.16
2019-03-26T05:02:38.155Z,98.93
2019-03-26T05:05:12.382Z,98.85
2019-03-26T05:07:46.107Z,98.90
2019-03-26T05:10:18.203Z,98.87
2019-03-26T05:12:51.177Z,98.95
2019-03-26T05:15:24.301Z,99.28
2019-03-26T05:17:56.848Z,99.22
2019-03-26T05:20:31.179Z,98.87
2019-03-26T05:23:04.082Z,98.56
2019-03-26T05:25:37.971Z,98.18
2019-03-26T05:28:10.237Z,97.96
2019-03-26T05:30:43.170Z,98.37
2019-03-26T05:33:16.236Z,98.57
2019-03-26T05:35:51.486Z,98.88
2019-03-26T05:38:23.273Z,98.44
2019-03-26T05:40:55.506Z,98.92
2019-03-26T05:43:28.265Z,98.78
2019-03-26T05:46:01.426Z,98.40
2019-03-26T05:48:34.391Z,98.36
2019-03-26T05:51:07.468Z,97.61
2019-03-26T05:53:40.431Z,96.85
2019-03-26T05:56:12.307Z,96.41
2019-03-26T05:58:45.530Z,96.50
2019-03-26T06:01:18.481Z,95.62
2019-03-26T06:03:50.686Z,95.48
2019-03-26T06:06:23.345Z,95.18
2019-03-26T06:08:55.776Z,94.85
2019-03-26T06:11:28.583Z,94.88
2019-03-26T06:14:01.436Z,94.64
2019-03-26T06:16:38.575Z,94.66
2019-03-26T06:19:08.656Z,94.83
2019-03-26T06:21:43.445Z,94.54
2019-03-26T06:24:17.437Z,94.68
2019-03-26T06:26:49.991Z,94.42
2019-03-26T06:29:22.619Z,94.22
2019-03-26T06:31:59.057Z,93.59
2019-03-26T06:34:33.119Z,93.80
2019-03-26T06:37:17.450Z,93.60
2019-03-26T06:39:42.707Z,93.75
2019-03-26T06:42:17.517Z,93.83
2019-03-26T06:44:50.520Z,93.36
2019-03-26T06:47:24.113Z,94.31
2019-03-26T06:49:58.553Z,93.96
2019-03-26T06:52:31.374Z,93.99
2019-03-26T06:55:04.176Z,94.17
2019-03-26T06:57:37.170Z,93.69
2019-03-26T07:00:12.514Z,93.40
2019-03-26T07:02:49.930Z,93.34
2019-03-26T07:05:23.094Z,91.71
2019-03-26T07:07:55.765Z,92.45
2019-03-26T07:10:29.522Z,92.23
2019-03-26T07:13:03.602Z,92.08
2019-03-26T07:15:37.772Z,90.54
2019-03-26T07:18:11.892Z,90.25
2019-03-26T07:20:45.695Z,90.54
2019-03-26T07:23:20.380Z,90.09
2019-03-26T07:25:54.423Z,89.95
2019-03-26T07:28:28.647Z,89.14
2019-03-26T07:31:03.303Z,88.94
2019-03-26T07:33:37.634Z,88.73
2019-03-26T07:36:11.666Z,88.07
2019-03-26T07:38:43.613Z,88.73
2019-03-26T07:41:15.911Z,88.51
2019-03-26T07:43:49.797Z,88.54
2019-03-26T07:46:23.836Z,88.21
2019-03-26T07:48:57.643Z,86.99
2019-03-26T07:51:34.697Z,84.82
2019-03-26T07:54:08.312Z,84.58
2019-03-26T07:56:43.381Z,84.17
2019-03-26T07:59:19.898Z,85.27
2019-03-26T08:01:54.512Z,84.08
2019-03-26T08:04:33.645Z,81.12
2019-03-26T08:07:07.807Z,80.58
2019-03-26T08:09:40.261Z,80.95
2019-03-26T08:12:15.063Z,80.67
2019-03-26T08:14:55.719Z,81.06
2019-03-26T08:17:45.269Z,80.29
2019-03-26T08:20:20.374Z,78.87
2019-03-26T08:22:54.023Z,78.16
2019-03-26T08:25:26.081Z,78.79
2019-03-26T08:28:01.027Z,78.83
2019-03-26T08:30:36.163Z,78.61
2019-03-26T08:33:11.218Z,79.72
2019-03-26T08:35:44.196Z,79.47
2019-03-26T08:38:17.130Z,77.99
2019-03-26T08:40:50.571Z,79.10
2019-03-26T08:43:29.829Z,78.80
2019-03-26T08:46:02.197Z,77.85
2019-03-26T08:48:35.136Z,75.45
2019-03-26T08:51:08.593Z,75.45
2019-03-26T08:53:42.570Z,76.22
2019-03-26T08:56:16.788Z,75.37
2019-03-26T08:58:54.915Z,77.28
2019-03-26T09:01:29.213Z,76.68
2019-03-26T09:04:09.246Z,75.49
2019-03-26T09:06:43.473Z,73.53
2019-03-26T09:09:20.608Z,72.73
2019-03-26T09:11:54.258Z,71.12
2019-03-26T09:14:26.760Z,70.69
2019-03-26T09:16:59.818Z,71.68
2019-03-26T09:19:33.853Z,71.90
2019-03-26T09:22:12.268Z,68.64
2019-03-26T09:24:50.949Z,70.35
2019-03-26T09:27:26.050Z,68.77
2019-03-26T09:30:01.980Z,67.43
2019-03-26T09:32:37.932Z,68.48
2019-03-26T09:35:11.628Z,67.79
2019-03-26T09:37:44.317Z,66.09
2019-03-26T09:40:22.356Z,66.14
2019-03-26T09:42:56.254Z,65.42
2019-03-26T09:45:30.933Z,63.14
2019-03-26T09:48:08.909Z,62.55
2019-03-26T09:50:41.952Z,58.57
2019-03-26T09:53:18.768Z,55.53
2019-03-26T09:55:53.522Z,54.26
2019-03-26T09:58:36.805Z,53.38
2019-03-26T10:01:14.196Z,53.02
2019-03-26T10:03:52.936Z,56.56
2019-03-26T10:06:33.725Z,54.74
2019-03-26T10:09:11.748Z,53.78
2019-03-26T10:11:44.845Z,51.73
2019-03-26T10:14:20.670Z,54.22
2019-03-26T10:16:56.484Z,52.71
2019-03-26T10:19:33.134Z,51.60
2019-03-26T10:22:07.776Z,51.41
2019-03-26T10:24:43.194Z,52.37
2019-03-26T10:27:18.379Z,53.68
2019-03-26T10:29:55.601Z,51.50
2019-03-26T10:32:30.554Z,51.32
2019-03-26T10:35:07.625Z,51.18
2019-03-26T10:37:41.263Z,52.68
2019-03-26T10:40:30.425Z,52.64
2019-03-26T10:43:04.557Z,52.71
2019-03-26T10:45:37.944Z,54.06
2019-03-26T10:48:21.677Z,53.14
2019-03-26T10:50:55.205Z,49.96
2019-03-26T10:53:35.426Z,49.40
2019-03-26T10:56:14.941Z,51.30
2019-03-26T10:58:50.136Z,48.28
2019-03-26T11:01:23.566Z,47.27
2019-03-26T11:04:01.972Z,48.97
2019-03-26T11:06:38.856Z,50.30
2019-03-26T11:09:21.366Z,49.75
2019-03-26T11:11:51.234Z,48.64
2019-03-26T11:14:43.053Z,50.63
2019-03-26T11:17:19.228Z,51.47
2019-03-26T11:19:53.433Z,52.72
2019-03-26T11:22:28.308Z,49.65
2019-03-26T11:25:02.366Z,48.21
2019-03-26T11:27:34.920Z,46.93
2019-03-26T11:30:08.655Z,47.62
2019-03-26T11:32:44.383Z,47.82
2019-03-26T11:35:16.939Z,46.49
2019-03-26T11:37:51.537Z,46.21
2019-03-26T11:40:32.905Z,45.25
2019-03-26T11:43:05.882Z,46.15
2019-03-26T11:45:37.775Z,45.02
2019-03-26T11:48:11.858Z,45.55
2019-03-26T11:50:45.971Z,46.99
2019-03-26T11:53:21.138Z,45.42
2019-03-26T11:55:56.141Z,45.67
2019-03-26T11:58:30.783Z,43.71
2019-03-26T12:01:08.135Z,47.10
2019-03-26T12:03:46.332Z,47.10
2019-03-26T12:06:19.817Z,46.87
2019-03-26T12:08:52.124Z,43.79
2019-03-26T12:11:27.184Z,44.89
2019-03-26T12:14:03.527Z,44.36
2019-03-26T12:16:40.852Z,44.08
2019-03-26T12:19:13.010Z,45.17
2019-03-26T12:21:47.028Z,45.30
2019-03-26T12:24:19.519Z,45.08
2019-03-26T12:26:53.128Z,45.52
2019-03-26T12:29:27.512Z,45.74
2019-03-26T12:31:59.845Z,46.41
2019-03-26T12:34:32.174Z,45.74
2019-03-26T12:37:06.363Z,45.74
2019-03-26T12:39:40.425Z,46.40
2019-03-26T12:42:15.096Z,47.12
2019-03-26T12:44:49.057Z,45.51
2019-03-26T12:47:23.017Z,44.79
2019-03-26T12:49:56.684Z,45.14
2019-03-26T12:52:29.250Z,45.42
2019-03-26T12:55:02.997Z,46.00
2019-03-26T12:57:35.300Z,47.48
2019-03-26T13:00:11.472Z,47.59
2019-03-26T13:02:45.295Z,46.88
2019-03-26T13:05:23.209Z,47.16
2019-03-26T13:07:58.057Z,46.94
2019-03-26T13:10:29.974Z,47.34
2019-03-26T13:13:02.213Z,47.45
2019-03-26T13:15:34.361Z,48.36
2019-03-26T13:18:06.403Z,49.81
2019-03-26T13:20:41.318Z,50.67
2019-03-26T13:23:14.097Z,49.85
2019-03-26T13:25:47.340Z,50.68
2019-03-26T13:28:19.790Z,49.67
2019-03-26T13:30:57.800Z,49.54
2019-03-26T13:33:30.317Z,49.71
2019-03-26T13:36:04.367Z,50.57
2019-03-26T13:38:37.557Z,49.47
2019-03-26T13:41:11.357Z,49.88
2019-03-26T13:43:45.479Z,49.39
2019-03-26T13:46:19.768Z,49.41
2019-03-26T13:48:55.860Z,51.42
2019-03-26T13:51:30.429Z,51.42
2019-03-26T13:54:04.015Z,51.33
2019-03-26T13:56:40.138Z,51.11
2019-03-26T13:59:12.963Z,52.33
2019-03-26T14:01:44.806Z,52.33
2019-03-26T14:04:17.620Z,51.82
2019-03-26T14:06:54.073Z,52.29
2019-03-26T14:09:28.200Z,53.30
2019-03-26T14:12:01.481Z,53.87
2019-03-26T14:14:33.330Z,53.97
2019-03-26T14:17:06.720Z,55.06
2019-03-26T14:19:44.000Z,55.06
2019-03-26T14:22:17.800Z,54.89
2019-03-26T14:24:50.634Z,54.65
2019-03-26T14:27:23.145Z,53.68
2019-03-26T14:29:56.842Z,53.68
2019-03-26T14:32:29.636Z,53.21
2019-03-26T14:35:02.184Z,53.44
2019-03-26T14:37:34.084Z,54.79
2019-03-26T14:40:09.277Z,55.06
2019-03-26T14:42:43.524Z,55.71
2019-03-26T14:45:16.747Z,55.32
2019-03-26T14:47:49.690Z,55.02
2019-03-26T14:50:23.639Z,55.92
2019-03-26T14:52:55.524Z,57.04
2019-03-26T14:55:29.778Z,56.03
2019-03-26T14:58:01.769Z,56.07
2019-03-26T15:00:37.329Z,56.11
2019-03-26T15:03:11.780Z,55.25
2019-03-26T15:05:44.790Z,55.80
2019-03-26T15:08:18.121Z,54.57
2019-03-26T15:10:50.946Z,55.02
2019-03-26T15:13:23.957Z,54.26
2019-03-26T15:15:58.924Z,53.95
2019-03-26T15:18:32.717Z,54.30
2019-03-26T15:21:05.953Z,54.03
2019-03-26T15:23:38.773Z,54.55
2019-03-26T15:26:11.746Z,55.58
2019-03-26T15:28:45.821Z,54.92
2019-03-26T15:31:19.785Z,55.13
2019-03-26T15:33:51.615Z,54.83
2019-03-26T15:36:24.199Z,54.63
2019-03-26T15:38:57.016Z,55.31
2019-03-26T15:41:30.558Z,55.96
2019-03-26T15:44:03.849Z,56.37
2019-03-26T15:46:36.499Z,55.66
2019-03-26T15:49:09.097Z,55.44
2019-03-26T15:51:41.906Z,56.29
2019-03-26T15:54:14.858Z,56.29
2019-03-26T15:56:47.833Z,55.96
2019-03-26T15:59:20.901Z,57.17
2019-03-26T16:01:54.664Z,57.17
2019-03-26T16:04:29.288Z,56.26
2019-03-26T16:07:02.982Z,57.09
2019-03-26T16:09:36.891Z,57.16
2019-03-26T16:12:10.113Z,57.99
2019-03-26T16:14:43.950Z,57.64
2019-03-26T16:17:15.854Z,58.54
2019-03-26T16:19:49.983Z,57.96
2019-03-26T16:22:22.927Z,57.76
2019-03-26T16:24:56.442Z,58.14
2019-03-26T16:27:29.065Z,57.83
2019-03-26T16:30:02.550Z,58.96
2019-03-26T16:32:36.842Z,60.00
2019-03-26T16:35:10.237Z,59.87
2019-03-26T16:37:44.020Z,60.57
2019-03-26T16:40:17.123Z,59.42
2019-03-26T16:42:49.268Z,58.81
2019-03-26T16:45:23.405Z,59.36
2019-03-26T16:47:56.097Z,59.17
2019-03-26T16:50:29.179Z,58.47
2019-03-26T16:53:04.941Z,59.22
2019-03-26T16:55:39.431Z,59.69
2019-03-26T16:58:14.123Z,59.69
2019-03-26T17:00:49.312Z,59.01
2019-03-26T17:03:31.268Z,60.73
2019-03-26T17:05:58.430Z,61.09
2019-03-26T17:08:32.137Z,61.51
2019-03-26T17:11:05.915Z,62.58
2019-03-26T17:13:39.329Z,62.09
2019-03-26T17:16:15.786Z,61.82
2019-03-26T17:18:48.288Z,62.50
2019-03-26T17:21:20.297Z,63.26
2019-03-26T17:23:54.261Z,62.76
2019-03-26T17:26:26.304Z,63.12
2019-03-26T17:28:59.286Z,63.54
2019-03-26T17:31:32.970Z,63.34
2019-03-26T17:34:05.343Z,63.04
2019-03-26T17:36:38.728Z,63.71
2019-03-26T17:39:13.359Z,63.85
2019-03-26T17:41:47.298Z,63.31
2019-03-26T17:44:20.659Z,63.90
2019-03-26T17:46:54.666Z,63.33
2019-03-26T17:49:28.435Z,63.18
2019-03-26T17:52:02.640Z,63.53
2019-03-26T17:54:36.534Z,64.24
2019-03-26T17:57:11.275Z,64.52
2019-03-26T17:59:45.558Z,64.15
2019-03-26T18:02:18.607Z,64.35
2019-03-26T18:04:53.514Z,64.35
2019-03-26T18:07:26.440Z,64.85
2019-03-26T18:09:58.410Z,64.65
2019-03-26T18:12:31.360Z,64.94
2019-03-26T18:15:07.516Z,65.10
2019-03-26T18:17:39.407Z,66.26
2019-03-26T18:20:13.410Z,66.17
2019-03-26T18:22:49.357Z,66.41
2019-03-26T18:25:24.891Z,66.09
2019-03-26T18:28:02.569Z,66.45
2019-03-26T18:30:36.552Z,66.55
2019-03-26T18:33:10.505Z,66.64
2019-03-26T18:35:44.643Z,66.51
2019-03-26T18:38:16.913Z,66.22
2019-03-26T18:40:50.610Z,66.01
2019-03-26T18:43:23.677Z,66.23
2019-03-26T18:45:56.694Z,65.53
2019-03-26T18:48:30.618Z,65.70
2019-03-26T18:51:02.794Z,65.51
2019-03-26T18:53:35.800Z,66.03
2019-03-26T18:56:08.722Z,65.56
2019-03-26T18:58:41.677Z,65.83
2019-03-26T19:01:15.611Z,65.37
2019-03-26T19:03:49.307Z,66.29
2019-03-26T19:06:23.742Z,65.21
2019-03-26T19:08:56.985Z,65.86
2019-03-26T19:11:29.912Z,66.36
2019-03-26T19:14:03.100Z,66.02
2019-03-26T19:16:36.031Z,66.20
2019-03-26T19:19:10.689Z,66.91
2019-03-26T19:21:44.430Z,66.58
2019-03-26T19:24:21.278Z,66.69
2019-03-26T19:26:54.962Z,67.24
2019-03-26T19:29:30.725Z,66.86
2019-03-26T19:32:03.827Z,66.77
2019-03-26T19:34:37.140Z,66.45
2019-03-26T19:37:12.010Z,66.90
2019-03-26T19:39:45.782Z,67.40
2019-03-26T19:42:17.954Z,67.59
2019-03-26T19:44:52.946Z,67.43
2019-03-26T19:47:27.482Z,67.14
2019-03-26T19:50:00.331Z,66.68
2019-03-26T19:52:35.170Z,67.44
2019-03-26T19:55:10.533Z,67.95
2019-03-26T19:57:43.002Z,68.11
2019-03-26T20:00:15.872Z,68.29
2019-03-26T20:02:49.611Z,67.85
2019-03-26T20:05:21.889Z,67.93
2019-03-26T20:07:56.122Z,68.25
2019-03-26T20:10:28.179Z,67.66
2019-03-26T20:13:03.333Z,68.29
2019-03-26T20:15:36.247Z,68.02
2019-03-26T20:18:09.152Z,67.77
2019-03-26T20:20:43.001Z,68.44
2019-03-26T20:23:16.207Z,68.59
2019-03-26T20:25:50.707Z,68.12
2019-03-26T20:28:27.261Z,68.26
2019-03-26T20:31:00.164Z,68.58
2019-03-26T20:33:32.526Z,68.54
2019-03-26T20:36:06.634Z,68.79
2019-03-26T20:38:39.220Z,68.84
2019-03-26T20:41:13.257Z,69.14
2019-03-26T20:43:45.344Z,69.36
2019-03-26T20:46:19.200Z,69.37
2019-03-26T20:48:54.186Z,69.34
2019-03-26T20:51:26.033Z,69.46
2019-03-26T20:53:58.271Z,69.12
2019-03-26T20:56:30.276Z,69.17
2019-03-26T20:59:04.372Z,69.31
2019-03-26T21:01:39.162Z,69.90
2019-03-26T21:04:11.332Z,69.65
2019-03-26T21:06:44.603Z,69.66
2019-03-26T21:09:18.408Z,69.48
2019-03-26T21:11:50.395Z,69.61
2019-03-26T21:14:24.214Z,68.80
2019-03-26T21:16:56.309Z,69.24
2019-03-26T21:19:30.162Z,69.61
2019-03-26T21:22:04.285Z,69.96
2019-03-26T21:24:38.876Z,69.38
2019-03-26T21:27:14.371Z,69.15
2019-03-26T21:29:48.881Z,69.30
2019-03-26T21:32:22.129Z,69.37
2019-03-26T21:34:55.036Z,69.50
2019-03-26T21:37:30.574Z,69.88
2019-03-26T21:40:03.995Z,69.43
2019-03-26T21:42:36.931Z,69.18
2019-03-26T21:45:14.098Z,68.80
2019-03-26T21:47:49.359Z,69.18
2019-03-26T21:50:21.749Z,69.36
2019-03-26T21:52:56.861Z,69.31
2019-03-26T21:55:29.976Z,69.09
2019-03-26T21:58:03.945Z,68.68
2019-03-26T22:00:38.020Z,68.90
2019-03-26T22:03:11.889Z,68.90
2019-03-26T22:05:47.987Z,68.42
2019-03-26T22:08:20.990Z,68.63
2019-03-26T22:10:57.565Z,68.35
2019-03-26T22:13:29.979Z,68.02
2019-03-26T22:16:05.181Z,67.38
2019-03-26T22:18:38.878Z,67.73
2019-03-26T22:21:15.611Z,67.83
2019-03-26T22:23:49.132Z,68.12
2019-03-26T22:26:21.582Z,67.52
2019-03-26T22:28:56.029Z,67.12
2019-03-26T22:31:30.146Z,67.53
2019-03-26T22:34:04.250Z,67.47
2019-03-26T22:36:37.680Z,67.53
2019-03-26T22:39:12.328Z,67.96
2019-03-26T22:41:45.244Z,68.16
2019-03-26T22:44:30.753Z,68.18
2019-03-26T22:46:54.264Z,68.66
2019-03-26T22:49:27.833Z,68.43
2019-03-26T22:52:01.457Z,69.11
2019-03-26T22:54:36.296Z,67.85
2019-03-26T22:57:09.515Z,68.57
2019-03-26T22:59:42.510Z,68.63
2019-03-26T23:02:15.335Z,68.79
2019-03-26T23:04:49.462Z,69.11
2019-03-26T23:07:21.937Z,69.15
2019-03-26T23:09:57.380Z,69.29
2019-03-26T23:12:30.349Z,69.05
2019-03-26T23:15:06.331Z,68.66
2019-03-26T23:17:41.914Z,69.02
2019-03-26T23:20:14.531Z,68.90
2019-03-26T23:22:48.550Z,68.71
2019-03-26T23:25:21.240Z,68.71
2019-03-26T23:27:55.378Z,68.38
2019-03-26T23:30:30.406Z,68.30
2019-03-26T23:33:06.813Z,68.22
2019-03-26T23:35:40.442Z,67.49
2019-03-26T23:38:17.285Z,67.28
2019-03-26T23:40:51.448Z,67.75
2019-03-26T23:43:24.342Z,68.43
2019-03-26T23:45:57.510Z,67.27
2019-03-26T23:48:31.688Z,67.24
2019-03-26T23:51:04.004Z,66.52
2019-03-26T23:53:36.604Z,67.53
2019-03-26T23:56:10.417Z,67.23
2019-03-26T23:58:44.976Z,67.52
